createdAt,value
2023-01-19T00:01:39.071Z,-10.67
2023-01-19T00:04:07.109Z,-10.66
2023-01-19T00:06:34.946Z,-10.68
2023-01-19T00:09:02.775Z,-10.63
2023-01-19T00:11:30.689Z,-10.59
2023-01-19T00:13:59.243Z,-10.57
2023-01-19T00:16:27.229Z,-10.52
2023-01-19T00:18:55.960Z,-10.56
2023-01-19T00:21:23.884Z,-10.64
2023-01-19T00:23:53.001Z,-10.74
2023-01-19T00:26:22.621Z,-10.91
2023-01-19T00:28:50.722Z,-11.08
2023-01-19T00:31:20.911Z,-11.15
2023-01-19T00:33:49.707Z,-11.21
2023-01-19T00:36:17.621Z,-11.20
2023-01-19T00:38:45.429Z,-11.14
2023-01-19T00:41:13.368Z,-11.20
2023-01-19T00:43:41.420Z,-11.22
2023-01-19T00:46:09.453Z,-11.16
2023-01-19T00:48:37.374Z,-11.11
2023-01-19T00:51:05.375Z,-11.05
2023-01-19T00:53:33.193Z,-10.98
2023-01-19T00:56:01.002Z,-10.91
2023-01-19T00:58:28.776Z,-10.88
2023-01-19T01:01:04.036Z,-10.86
2023-01-19T01:03:32.569Z,-10.80
2023-01-19T01:06:00.449Z,-10.82
2023-01-19T01:08:28.300Z,-10.76
2023-01-19T01:10:56.368Z,-10.73
2023-01-19T01:13:26.335Z,-10.76
2023-01-19T01:15:55.789Z,-10.73
2023-01-19T01:18:23.845Z,-10.73
2023-01-19T01:20:51.657Z,-10.73
2023-01-19T01:23:23.298Z,-10.75
2023-01-19T01:25:51.200Z,-10.77
2023-01-19T01:28:19.117Z,-10.84
2023-01-19T01:30:46.933Z,-10.89
2023-01-19T01:33:14.727Z,-10.96
2023-01-19T01:35:42.555Z,-11.08
2023-01-19T01:38:10.496Z,-11.02
2023-01-19T01:40:41.423Z,-11.05
2023-01-19T01:43:16.511Z,-11.07
2023-01-19T01:45:44.683Z,-11.14
2023-01-19T01:48:14.154Z,-11.19
2023-01-19T01:51:08.461Z,-11.24
2023-01-19T01:53:36.387Z,-11.27
2023-01-19T01:56:06.485Z,-11.28
2023-01-19T01:58:35.269Z,-11.31
2023-01-19T02:01:21.597Z,-11.30
2023-01-19T02:03:49.664Z,-11.34
2023-01-19T02:06:17.708Z,-11.42
2023-01-19T02:09:13.951Z,-11.51
2023-01-19T02:12:00.035Z,-11.54
2023-01-19T02:14:28.191Z,-11.46
2023-01-19T02:16:56.035Z,-11.51
2023-01-19T02:19:31.581Z,-11.58
2023-01-19T02:22:13.319Z,-11.65
2023-01-19T02:24:41.328Z,-11.73
2023-01-19T02:27:09.419Z,-11.87
2023-01-19T02:29:37.112Z,-11.98
2023-01-19T02:32:06.214Z,-12.10
2023-01-19T02:34:34.117Z,-12.18
2023-01-19T02:37:13.277Z,-12.19
2023-01-19T02:39:51.160Z,-12.28
2023-01-19T02:42:23.654Z,-12.34
2023-01-19T02:44:51.564Z,-12.49
2023-01-19T02:47:20.173Z,-12.61
2023-01-19T02:50:01.000Z,-12.62
2023-01-19T02:52:28.816Z,-12.67
2023-01-19T02:55:02.481Z,-12.68
2023-01-19T02:57:33.514Z,-12.69
2023-01-19T03:00:23.163Z,-12.71
2023-01-19T03:02:53.798Z,-12.72
2023-01-19T03:05:38.734Z,-12.67
2023-01-19T03:08:22.520Z,-12.58
2023-01-19T03:11:02.962Z,-12.42
2023-01-19T03:13:55.736Z,-12.23
2023-01-19T03:16:37.248Z,-12.07
2023-01-19T03:19:08.980Z,-11.93
2023-01-19T03:21:37.721Z,-11.63
2023-01-19T03:24:07.037Z,-11.39
2023-01-19T03:26:38.305Z,-11.27
2023-01-19T03:29:07.381Z,-11.30
2023-01-19T03:31:35.131Z,-11.25
2023-01-19T03:34:06.133Z,-11.32
2023-01-19T03:37:05.240Z,-11.34
2023-01-19T03:39:33.096Z,-11.29
2023-01-19T03:42:03.599Z,-11.24
2023-01-19T03:44:31.919Z,-11.05
2023-01-19T03:46:59.817Z,-10.92
2023-01-19T03:49:27.882Z,-10.62
2023-01-19T03:51:59.399Z,-10.21
2023-01-19T03:54:27.539Z,-9.78
2023-01-19T03:56:55.480Z,-9.59
2023-01-19T03:59:23.426Z,-9.60
2023-01-19T04:01:51.165Z,-9.46
2023-01-19T04:04:19.270Z,-9.22
2023-01-19T04:06:47.205Z,-9.11
2023-01-19T04:09:15.093Z,-9.14
2023-01-19T04:11:42.998Z,-8.98
2023-01-19T04:14:11.143Z,-8.74
2023-01-19T04:16:38.975Z,-8.49
2023-01-19T04:19:06.821Z,-8.22
2023-01-19T04:21:34.663Z,-8.08
2023-01-19T04:24:02.627Z,-8.01
2023-01-19T04:26:30.557Z,-7.78
2023-01-19T04:28:58.939Z,-7.46
2023-01-19T04:31:26.796Z,-7.09
2023-01-19T04:33:54.885Z,-6.74
2023-01-19T04:36:22.747Z,-6.67
2023-01-19T04:38:50.880Z,-6.60
2023-01-19T04:41:19.046Z,-6.50
2023-01-19T04:43:48.095Z,-6.30
2023-01-19T04:46:16.072Z,-6.13
2023-01-19T04:48:44.021Z,-6.00
2023-01-19T04:51:12.360Z,-6.10
2023-01-19T04:53:40.708Z,-6.26
2023-01-19T04:56:08.506Z,-6.36
2023-01-19T04:58:36.955Z,-6.30
2023-01-19T05:01:09.071Z,-6.11
2023-01-19T05:03:37.224Z,-5.93
2023-01-19T05:06:07.847Z,-5.90
2023-01-19T05:08:35.672Z,-5.87
2023-01-19T05:11:04.071Z,-5.81
2023-01-19T05:13:33.895Z,-5.85
2023-01-19T05:16:02.189Z,-5.64
2023-01-19T05:18:36.404Z,-5.54
2023-01-19T05:21:04.803Z,-5.45
2023-01-19T05:23:33.188Z,-5.29
2023-01-19T05:26:02.334Z,-5.28
2023-01-19T05:28:30.955Z,-5.36
2023-01-19T05:30:59.135Z,-5.45
2023-01-19T05:33:28.135Z,-5.42
2023-01-19T05:35:55.930Z,-5.51
2023-01-19T05:38:34.465Z,-5.51
2023-01-19T05:41:02.939Z,-5.64
2023-01-19T05:43:30.741Z,-5.66
2023-01-19T05:45:58.676Z,-5.72
2023-01-19T05:48:26.551Z,-5.72
2023-01-19T05:50:58.603Z,-6.01
2023-01-19T05:53:26.559Z,-6.54
2023-01-19T05:55:54.742Z,-7.03
2023-01-19T05:58:22.679Z,-7.42
2023-01-19T06:00:50.766Z,-7.68
2023-01-19T06:03:19.125Z,-7.93
2023-01-19T06:05:47.429Z,-8.15
2023-01-19T06:08:18.054Z,-8.35
2023-01-19T06:10:45.926Z,-8.53
2023-01-19T06:13:13.719Z,-8.65
2023-01-19T06:15:43.187Z,-8.78
2023-01-19T06:18:17.339Z,-8.91
2023-01-19T06:20:45.209Z,-8.96
2023-01-19T06:23:13.055Z,-8.99
2023-01-19T06:25:40.903Z,-8.98
2023-01-19T06:28:08.688Z,-8.94
2023-01-19T06:30:36.495Z,-9.01
2023-01-19T06:33:04.254Z,-9.08
2023-01-19T06:35:32.264Z,-9.07
2023-01-19T06:37:59.984Z,-9.01
2023-01-19T06:40:28.126Z,-8.88
2023-01-19T06:42:56.077Z,-8.74
2023-01-19T06:45:23.990Z,-8.57
2023-01-19T06:47:51.974Z,-8.39
2023-01-19T06:50:19.883Z,-8.16
2023-01-19T06:52:51.348Z,-8.06
2023-01-19T06:55:19.358Z,-7.97
2023-01-19T06:57:47.827Z,-7.82
2023-01-19T07:00:16.666Z,-7.72
2023-01-19T07:02:44.658Z,-7.59
2023-01-19T07:05:14.777Z,-7.55
2023-01-19T07:07:43.621Z,-7.58
2023-01-19T07:10:16.780Z,-7.62
2023-01-19T07:12:46.966Z,-7.64
2023-01-19T07:15:19.960Z,-7.61
2023-01-19T07:17:47.920Z,-7.62
2023-01-19T07:20:15.953Z,-7.68
2023-01-19T07:22:46.113Z,-7.70
2023-01-19T07:25:14.531Z,-7.65
2023-01-19T07:27:42.421Z,-7.64
2023-01-19T07:30:10.783Z,-7.58
2023-01-19T07:32:38.817Z,-7.38
2023-01-19T07:35:06.869Z,-7.30
2023-01-19T07:37:34.801Z,-7.22
2023-01-19T07:40:02.636Z,-7.18
2023-01-19T07:42:30.674Z,-7.15
2023-01-19T07:44:58.771Z,-7.08
2023-01-19T07:47:26.483Z,-7.08
2023-01-19T07:49:54.412Z,-7.01
2023-01-19T07:52:23.357Z,-7.05
2023-01-19T07:54:51.473Z,-7.06
2023-01-19T07:57:19.833Z,-6.95
2023-01-19T07:59:47.749Z,-7.12
2023-01-19T08:02:16.444Z,-7.26
2023-01-19T08:04:45.246Z,-7.41
2023-01-19T08:07:13.170Z,-7.58
2023-01-19T08:09:41.317Z,-7.63
2023-01-19T08:12:09.149Z,-7.57
2023-01-19T08:14:37.083Z,-7.51
2023-01-19T08:17:04.982Z,-7.47
2023-01-19T08:19:32.744Z,-7.42
2023-01-19T08:22:00.638Z,-7.34
2023-01-19T08:24:29.527Z,-7.26
2023-01-19T08:27:00.971Z,-7.23
2023-01-19T08:29:31.191Z,-7.34
2023-01-19T08:32:00.530Z,-7.38
2023-01-19T08:34:28.328Z,-7.46
2023-01-19T08:36:56.163Z,-7.53
2023-01-19T08:39:24.985Z,-7.56
2023-01-19T08:41:55.813Z,-7.56
2023-01-19T08:44:23.619Z,-7.63
2023-01-19T08:46:51.595Z,-7.61
2023-01-19T08:49:19.410Z,-7.70
2023-01-19T08:51:49.971Z,-7.60
2023-01-19T08:54:18.720Z,-7.64
2023-01-19T08:56:46.694Z,-7.60
2023-01-19T08:59:14.493Z,-7.62
2023-01-19T09:01:42.605Z,-7.55
2023-01-19T09:04:10.581Z,-7.54
2023-01-19T09:06:38.631Z,-7.49
2023-01-19T09:09:06.377Z,-7.45
2023-01-19T09:11:35.314Z,-7.42
2023-01-19T09:14:03.791Z,-7.40
2023-01-19T09:16:31.675Z,-7.28
2023-01-19T09:18:59.650Z,-7.22
2023-01-19T09:21:27.492Z,-7.23
2023-01-19T09:23:55.505Z,-7.20
2023-01-19T09:26:24.119Z,-7.16
2023-01-19T09:28:51.991Z,-7.21
2023-01-19T09:31:20.042Z,-7.22
2023-01-19T09:33:48.045Z,-7.33
2023-01-19T09:36:15.991Z,-7.47
2023-01-19T09:38:44.046Z,-7.60
2023-01-19T09:41:19.876Z,-7.57
2023-01-19T09:43:57.181Z,-7.45
2023-01-19T09:46:34.825Z,-7.42
2023-01-19T09:49:05.430Z,-7.50
2023-01-19T09:51:36.922Z,-7.35
2023-01-19T09:54:21.200Z,-7.37
2023-01-19T09:56:52.369Z,-7.44
2023-01-19T09:59:30.782Z,-7.40
2023-01-19T10:02:16.191Z,-7.42
2023-01-19T10:04:45.018Z,-7.47
2023-01-19T10:07:17.619Z,-7.43
2023-01-19T10:09:54.359Z,-7.51
2023-01-19T10:12:27.058Z,-7.65
2023-01-19T10:14:58.078Z,-7.73
2023-01-19T10:17:52.289Z,-7.85
2023-01-19T10:20:27.885Z,-8.02
2023-01-19T10:22:55.955Z,-8.08
2023-01-19T10:25:26.895Z,-8.23
2023-01-19T10:27:54.719Z,-8.38
2023-01-19T10:30:24.268Z,-8.50
2023-01-19T10:32:52.340Z,-8.63
2023-01-19T10:35:24.820Z,-8.71
2023-01-19T10:38:02.443Z,-8.83
2023-01-19T10:40:54.070Z,-8.92
2023-01-19T10:43:37.471Z,-9.02
2023-01-19T10:46:34.111Z,-9.16
2023-01-19T10:49:02.050Z,-9.24
2023-01-19T10:51:30.009Z,-9.30
2023-01-19T10:54:02.601Z,-9.37
2023-01-19T10:56:37.023Z,-9.30
2023-01-19T10:59:06.362Z,-9.30
2023-01-19T11:01:37.591Z,-9.30
2023-01-19T11:04:32.133Z,-9.21
2023-01-19T11:07:19.192Z,-9.20
2023-01-19T11:09:48.118Z,-9.17
2023-01-19T11:12:23.557Z,-9.13
2023-01-19T11:14:51.823Z,-9.09
2023-01-19T11:17:26.038Z,-9.00
2023-01-19T11:20:01.447Z,-8.92
2023-01-19T11:22:33.465Z,-8.87
2023-01-19T11:25:02.736Z,-8.81
2023-01-19T11:27:31.767Z,-8.79
2023-01-19T11:30:02.218Z,-8.74
2023-01-19T11:32:30.064Z,-8.71
2023-01-19T11:34:58.437Z,-8.74
2023-01-19T11:37:29.268Z,-8.74
2023-01-19T11:40:03.016Z,-8.63
2023-01-19T11:42:32.227Z,-8.60
2023-01-19T11:45:06.939Z,-8.60
2023-01-19T11:47:52.975Z,-8.53
2023-01-19T11:50:34.523Z,-8.49
2023-01-19T11:53:05.699Z,-8.39
2023-01-19T11:55:44.901Z,-8.24
2023-01-19T11:58:17.023Z,-8.16
2023-01-19T12:00:50.597Z,-8.17
2023-01-19T12:03:42.608Z,-8.08
2023-01-19T12:06:13.086Z,-8.09
2023-01-19T12:09:02.435Z,-8.04
2023-01-19T12:11:36.182Z,-7.92
2023-01-19T12:14:04.057Z,-7.84
2023-01-19T12:16:33.484Z,-7.68
2023-01-19T12:19:11.820Z,-7.52
2023-01-19T12:21:39.956Z,-7.39
2023-01-19T12:24:23.952Z,-7.38
2023-01-19T12:27:17.705Z,-7.23
2023-01-19T12:29:45.980Z,-7.21
2023-01-19T12:32:14.032Z,-7.18
2023-01-19T12:34:52.326Z,-7.16
2023-01-19T12:37:29.458Z,-7.05
2023-01-19T12:40:01.541Z,-7.01
2023-01-19T12:42:29.597Z,-7.09
2023-01-19T12:45:08.426Z,-7.05
2023-01-19T12:47:36.594Z,-7.09
2023-01-19T12:50:19.504Z,-7.17
2023-01-19T12:52:51.812Z,-7.16
2023-01-19T12:55:25.218Z,-7.20
2023-01-19T12:58:19.232Z,-7.28
2023-01-19T13:00:49.076Z,-7.34
2023-01-19T13:03:17.018Z,-7.33
2023-01-19T13:05:44.900Z,-7.40
2023-01-19T13:08:22.412Z,-7.50
2023-01-19T13:11:11.330Z,-7.63
2023-01-19T13:13:40.344Z,-7.74
2023-01-19T13:16:20.571Z,-7.79
2023-01-19T13:18:51.140Z,-7.84
2023-01-19T13:21:44.838Z,-7.87
2023-01-19T13:24:15.389Z,-7.91
2023-01-19T13:26:53.425Z,-7.88
2023-01-19T13:29:31.824Z,-7.95
2023-01-19T13:32:03.608Z,-7.99
2023-01-19T13:34:37.130Z,-8.03
2023-01-19T13:37:06.717Z,-8.04
2023-01-19T13:39:46.675Z,-8.00
2023-01-19T13:42:28.786Z,-7.97
2023-01-19T13:44:59.041Z,-7.95
2023-01-19T13:47:45.714Z,-7.93
2023-01-19T13:50:20.619Z,-7.85
2023-01-19T13:52:49.429Z,-7.72
2023-01-19T13:55:17.484Z,-7.66
2023-01-19T13:57:45.922Z,-7.59
2023-01-19T14:00:16.250Z,-7.58
2023-01-19T14:02:56.292Z,-7.59
2023-01-19T14:05:31.325Z,-7.67
2023-01-19T14:08:14.113Z,-7.71
2023-01-19T14:10:55.095Z,-7.67
2023-01-19T14:13:30.701Z,-7.72
2023-01-19T14:16:00.704Z,-7.77
2023-01-19T14:18:32.796Z,-7.86
2023-01-19T14:21:19.920Z,-7.87
2023-01-19T14:23:49.306Z,-7.94
2023-01-19T14:26:39.705Z,-7.97
2023-01-19T14:29:10.603Z,-8.01
2023-01-19T14:31:49.652Z,-8.02
2023-01-19T14:34:36.077Z,-8.01
2023-01-19T14:37:04.640Z,-8.01
2023-01-19T14:39:34.379Z,-7.97
2023-01-19T14:42:03.618Z,-7.99
2023-01-19T14:44:41.465Z,-8.01
2023-01-19T14:47:27.859Z,-8.02
2023-01-19T14:49:57.257Z,-8.05
2023-01-19T14:52:37.210Z,-8.05
2023-01-19T14:55:09.031Z,-8.12
2023-01-19T14:57:38.267Z,-8.11
2023-01-19T15:00:17.509Z,-8.06
2023-01-19T15:02:46.599Z,-8.11
2023-01-19T15:05:14.963Z,-8.08
2023-01-19T15:07:44.181Z,-8.03
2023-01-19T15:10:22.294Z,-7.96
2023-01-19T15:12:50.969Z,-7.93
2023-01-19T15:15:33.310Z,-7.89
2023-01-19T15:18:02.083Z,-7.93
2023-01-19T15:20:30.113Z,-7.93
2023-01-19T15:22:58.085Z,-7.86
2023-01-19T15:25:28.616Z,-7.86
2023-01-19T15:27:58.488Z,-7.81
2023-01-19T15:30:28.226Z,-7.78
2023-01-19T15:32:56.032Z,-7.75
2023-01-19T15:35:24.359Z,-7.85
2023-01-19T15:37:52.277Z,-7.88
2023-01-19T15:40:20.406Z,-7.94
2023-01-19T15:42:48.418Z,-8.02
2023-01-19T15:45:19.233Z,-8.10
2023-01-19T15:47:48.079Z,-8.17
2023-01-19T15:50:16.224Z,-8.11
2023-01-19T15:52:44.148Z,-8.03
2023-01-19T15:55:12.501Z,-7.92
2023-01-19T15:57:40.334Z,-7.85
2023-01-19T16:00:09.102Z,-7.76
2023-01-19T16:02:39.771Z,-7.77
2023-01-19T16:05:08.443Z,-7.87
2023-01-19T16:07:36.551Z,-7.93
2023-01-19T16:10:06.682Z,-7.97
2023-01-19T16:12:34.498Z,-8.03
2023-01-19T16:15:02.352Z,-8.12
2023-01-19T16:17:30.027Z,-8.18
2023-01-19T16:19:57.895Z,-8.06
2023-01-19T16:22:25.679Z,-8.02
2023-01-19T16:24:53.677Z,-7.95
2023-01-19T16:27:21.560Z,-7.92
2023-01-19T16:29:49.366Z,-7.80
2023-01-19T16:32:17.218Z,-7.68
2023-01-19T16:34:45.129Z,-7.58
2023-01-19T16:37:12.969Z,-7.44
2023-01-19T16:39:40.827Z,-7.37
2023-01-19T16:42:08.687Z,-7.27
2023-01-19T16:44:36.850Z,-7.24
2023-01-19T16:47:04.686Z,-7.21
2023-01-19T16:49:32.663Z,-7.19
2023-01-19T16:52:00.630Z,-7.11
2023-01-19T16:54:28.735Z,-7.07
2023-01-19T16:56:57.147Z,-7.05
2023-01-19T16:59:25.511Z,-6.97
2023-01-19T17:01:53.726Z,-6.96
2023-01-19T17:04:22.152Z,-6.88
2023-01-19T17:06:50.574Z,-6.81
2023-01-19T17:09:18.539Z,-6.73
2023-01-19T17:11:46.523Z,-6.65
2023-01-19T17:14:16.744Z,-6.61
2023-01-19T17:16:44.777Z,-6.54
2023-01-19T17:19:17.499Z,-6.45
2023-01-19T17:21:46.663Z,-6.53
2023-01-19T17:24:14.623Z,-6.56
2023-01-19T17:26:42.845Z,-6.54
2023-01-19T17:29:10.872Z,-6.50
2023-01-19T17:31:38.696Z,-6.44
2023-01-19T17:34:06.684Z,-6.38
2023-01-19T17:36:34.558Z,-6.35
2023-01-19T17:39:09.283Z,-6.29
2023-01-19T17:41:37.227Z,-6.25
2023-01-19T17:44:05.717Z,-6.18
2023-01-19T17:46:36.306Z,-6.14
2023-01-19T17:49:05.270Z,-6.10
2023-01-19T17:51:33.022Z,-6.06
2023-01-19T17:54:00.895Z,-6.04
2023-01-19T17:56:30.561Z,-6.00
2023-01-19T17:58:58.821Z,-6.00
2023-01-19T18:01:28.343Z,-5.95
2023-01-19T18:03:56.397Z,-5.93
2023-01-19T18:06:24.316Z,-5.93
2023-01-19T18:08:52.821Z,-5.91
2023-01-19T18:11:21.048Z,-5.93
2023-01-19T18:13:49.881Z,-5.92
2023-01-19T18:16:20.271Z,-5.92
2023-01-19T18:18:50.027Z,-5.92
2023-01-19T18:21:18.978Z,-5.91
2023-01-19T18:23:46.756Z,-5.91
2023-01-19T18:26:17.218Z,-5.93
2023-01-19T18:28:45.167Z,-6.03
2023-01-19T18:31:14.864Z,-5.96
2023-01-19T18:33:42.683Z,-5.99
2023-01-19T18:36:10.644Z,-6.03
2023-01-19T18:38:38.914Z,-6.01
2023-01-19T18:41:08.653Z,-6.17
2023-01-19T18:43:36.580Z,-6.11
2023-01-19T18:46:04.477Z,-6.13
2023-01-19T18:48:32.417Z,-6.19
2023-01-19T18:51:03.827Z,-6.26
2023-01-19T18:53:32.234Z,-6.40
2023-01-19T18:56:00.674Z,-6.42
2023-01-19T18:58:29.589Z,-6.50
2023-01-19T19:00:57.547Z,-6.50
2023-01-19T19:03:25.716Z,-6.52
2023-01-19T19:05:53.839Z,-6.58
2023-01-19T19:08:21.730Z,-6.63
2023-01-19T19:10:49.548Z,-6.59
2023-01-19T19:13:17.628Z,-6.60
2023-01-19T19:15:45.417Z,-6.62
2023-01-19T19:18:16.656Z,-6.62
2023-01-19T19:20:44.545Z,-6.62
2023-01-19T19:23:12.664Z,-6.66
2023-01-19T19:25:40.586Z,-6.64
2023-01-19T19:28:08.952Z,-6.61
2023-01-19T19:30:39.262Z,-6.70
2023-01-19T19:33:08.196Z,-6.60
2023-01-19T19:35:36.027Z,-6.62
2023-01-19T19:38:04.104Z,-6.65
2023-01-19T19:40:31.896Z,-6.71
2023-01-19T19:42:59.882Z,-6.73
2023-01-19T19:45:27.880Z,-6.76
2023-01-19T19:47:55.912Z,-6.79
2023-01-19T19:50:23.901Z,-6.83
2023-01-19T19:52:51.792Z,-6.87
2023-01-19T19:55:19.637Z,-6.92
2023-01-19T19:57:47.970Z,-7.01
2023-01-19T20:00:16.178Z,-7.02
2023-01-19T20:02:44.876Z,-7.04
2023-01-19T20:05:12.654Z,-7.09
2023-01-19T20:07:46.682Z,-7.13
2023-01-19T20:10:14.865Z,-7.15
2023-01-19T20:12:42.774Z,-7.19
2023-01-19T20:15:11.457Z,-7.25
2023-01-19T20:17:39.198Z,-7.31
2023-01-19T20:20:07.745Z,-7.34
2023-01-19T20:22:35.614Z,-7.35
2023-01-19T20:25:03.371Z,-7.31
2023-01-19T20:27:31.199Z,-7.31
2023-01-19T20:29:59.046Z,-7.21
2023-01-19T20:32:27.164Z,-7.16
2023-01-19T20:34:54.921Z,-7.08
2023-01-19T20:37:22.855Z,-7.03
2023-01-19T20:39:50.928Z,-6.98
2023-01-19T20:42:18.729Z,-6.98
2023-01-19T20:44:46.538Z,-6.89
2023-01-19T20:47:14.478Z,-6.89
2023-01-19T20:49:42.426Z,-6.85
2023-01-19T20:52:10.368Z,-6.87
2023-01-19T20:54:40.163Z,-6.88
2023-01-19T20:57:07.930Z,-6.93
2023-01-19T20:59:37.412Z,-7.01
2023-01-19T21:02:08.443Z,-7.02
2023-01-19T21:04:36.284Z,-7.07
2023-01-19T21:07:04.983Z,-7.06
2023-01-19T21:09:32.718Z,-7.11
2023-01-19T21:12:00.570Z,-7.10
2023-01-19T21:14:28.577Z,-7.10
2023-01-19T21:16:58.918Z,-7.13
2023-01-19T21:19:26.717Z,-7.10
2023-01-19T21:21:55.607Z,-7.10
2023-01-19T21:24:23.668Z,-7.14
2023-01-19T21:26:51.537Z,-7.13
2023-01-19T21:29:19.510Z,-7.08
2023-01-19T21:31:47.387Z,-7.08
2023-01-19T21:34:15.363Z,-7.07
2023-01-19T21:36:45.049Z,-7.08
2023-01-19T21:39:13.071Z,-7.08
2023-01-19T21:41:42.766Z,-7.07
2023-01-19T21:44:14.458Z,-7.09
2023-01-19T21:46:42.490Z,-7.07
2023-01-19T21:49:19.180Z,-7.14
2023-01-19T21:51:48.105Z,-7.08
2023-01-19T21:54:15.858Z,-7.08
2023-01-19T21:56:43.911Z,-7.04
2023-01-19T21:59:15.417Z,-7.05
2023-01-19T22:01:43.831Z,-7.09
2023-01-19T22:04:12.036Z,-7.05
2023-01-19T22:06:40.084Z,-7.09
2023-01-19T22:09:08.259Z,-7.09
2023-01-19T22:11:36.485Z,-7.02
2023-01-19T22:14:04.220Z,-7.07
2023-01-19T22:16:32.164Z,-7.05
2023-01-19T22:19:01.532Z,-7.06
2023-01-19T22:21:34.480Z,-7.07
2023-01-19T22:24:02.961Z,-7.07
2023-01-19T22:26:30.983Z,-7.06
2023-01-19T22:29:00.325Z,-7.07
2023-01-19T22:31:28.776Z,-7.09
2023-01-19T22:33:57.032Z,-7.09
2023-01-19T22:36:28.536Z,-7.09
2023-01-19T22:39:00.855Z,-7.08
2023-01-19T22:41:33.879Z,-7.11
2023-01-19T22:44:03.610Z,-7.11
2023-01-19T22:46:32.643Z,-7.15
2023-01-19T22:49:00.787Z,-7.14
2023-01-19T22:51:29.718Z,-7.13
2023-01-19T22:53:57.843Z,-7.10
2023-01-19T22:56:30.377Z,-7.18
2023-01-19T22:58:58.658Z,-7.08
2023-01-19T23:01:31.893Z,-7.14
2023-01-19T23:04:00.556Z,-7.19
2023-01-19T23:06:29.638Z,-7.18
2023-01-19T23:08:59.178Z,-7.19
2023-01-19T23:11:35.551Z,-7.33
2023-01-19T23:14:04.504Z,-7.33
2023-01-19T23:16:32.305Z,-7.40
2023-01-19T23:19:00.137Z,-7.44
2023-01-19T23:21:29.175Z,-7.43
2023-01-19T23:23:58.226Z,-7.38
2023-01-19T23:26:26.092Z,-7.41
2023-01-19T23:28:58.907Z,-7.39
2023-01-19T23:31:28.497Z,-7.42
2023-01-19T23:34:03.396Z,-7.45
2023-01-19T23:36:33.089Z,-7.46
2023-01-19T23:39:03.085Z,-7.42
2023-01-19T23:41:31.775Z,-7.40
2023-01-19T23:43:59.688Z,-7.49
2023-01-19T23:46:27.752Z,-7.53
2023-01-19T23:48:56.018Z,-7.46
2023-01-19T23:51:25.881Z,-7.48
2023-01-19T23:53:53.838Z,-7.41
2023-01-19T23:56:26.437Z,-7.36
2023-01-19T23:58:56.104Z,-7.32
